createdAt,value
2018-03-26T00:01:30.340Z,66.20
2018-03-26T00:03:57.785Z,66.30
2018-03-26T00:06:25.230Z,66.30
2018-03-26T00:08:53.878Z,66.40
2018-03-26T00:11:21.308Z,66.70
2018-03-26T00:13:49.519Z,66.80
2018-03-26T00:16:17.726Z,66.80
2018-03-26T00:18:45.165Z,66.90
2018-03-26T00:21:12.604Z,67.00
2018-03-26T00:23:40.128Z,67.20
2018-03-26T00:26:08.392Z,67.10
2018-03-26T00:28:35.956Z,67.10
2018-03-26T00:31:03.406Z,67.20
2018-03-26T00:33:30.868Z,67.20
2018-03-26T00:35:58.404Z,67.30
2018-03-26T00:38:25.853Z,67.30
2018-03-26T00:40:53.352Z,67.40
2018-03-26T00:43:20.788Z,67.40
2018-03-26T00:45:48.248Z,67.40
2018-03-26T00:48:15.733Z,67.30
2018-03-26T00:50:43.942Z,67.40
2018-03-26T00:53:11.372Z,67.40
2018-03-26T00:55:38.929Z,67.50
2018-03-26T00:58:06.364Z,67.70
2018-03-26T01:00:33.820Z,67.90
2018-03-26T01:03:01.308Z,67.90
2018-03-26T01:05:28.793Z,68.00
2018-03-26T01:07:57.218Z,68.10
2018-03-26T01:10:24.665Z,68.30
2018-03-26T01:12:52.518Z,68.30
2018-03-26T01:15:19.957Z,68.40
2018-03-26T01:17:47.413Z,68.40
2018-03-26T01:20:15.688Z,68.60
2018-03-26T01:22:43.162Z,68.60
2018-03-26T01:25:10.609Z,68.80
2018-03-26T01:27:38.224Z,69.80
2018-03-26T01:30:06.448Z,69.40
2018-03-26T01:32:33.950Z,69.30
2018-03-26T01:35:01.394Z,69.70
2018-03-26T01:37:28.852Z,69.80
2018-03-26T01:39:56.308Z,70.00
2018-03-26T01:42:23.769Z,70.10
2018-03-26T01:44:51.223Z,70.30
2018-03-26T01:47:18.770Z,70.30
2018-03-26T01:49:46.205Z,70.50
2018-03-26T01:52:13.834Z,70.60
2018-03-26T01:54:41.286Z,70.70
2018-03-26T01:57:09.498Z,70.70
2018-03-26T01:59:46.833Z,70.60
2018-03-26T02:02:14.300Z,70.70
2018-03-26T02:04:42.530Z,71.00
2018-03-26T02:07:10.081Z,70.90
2018-03-26T02:09:37.516Z,71.00
2018-03-26T02:12:04.961Z,71.00
2018-03-26T02:14:33.496Z,71.20
2018-03-26T02:17:00.944Z,71.10
2018-03-26T02:19:28.382Z,71.20
2018-03-26T02:21:55.972Z,71.30
2018-03-26T02:24:23.424Z,71.40
2018-03-26T02:26:51.032Z,71.40
2018-03-26T02:29:19.281Z,71.60
2018-03-26T02:31:46.729Z,71.60
2018-03-26T02:34:14.195Z,71.70
2018-03-26T02:36:41.858Z,71.80
2018-03-26T02:39:09.302Z,71.90
2018-03-26T02:41:36.751Z,72.00
2018-03-26T02:44:04.229Z,72.00
2018-03-26T02:46:31.676Z,72.10
2018-03-26T02:48:59.141Z,72.20
2018-03-26T02:51:26.575Z,72.30
2018-03-26T02:53:54.125Z,72.30
2018-03-26T02:59:12.326Z,72.50
2018-03-26T03:01:39.778Z,72.50
2018-03-26T03:04:12.483Z,72.60
2018-03-26T03:06:39.913Z,72.60
2018-03-26T03:09:07.348Z,72.60
2018-03-26T03:11:34.916Z,72.60
2018-03-26T03:14:02.357Z,72.70
2018-03-26T03:16:29.803Z,72.70
2018-03-26T03:18:58.116Z,72.70
2018-03-26T03:21:25.759Z,72.80
2018-03-26T03:23:53.191Z,72.80
2018-03-26T03:26:20.640Z,72.90
2018-03-26T03:28:48.928Z,73.10
2018-03-26T03:31:16.415Z,73.00
2018-03-26T03:33:43.856Z,73.10
2018-03-26T03:36:11.317Z,73.10
2018-03-26T03:38:38.788Z,73.20
2018-03-26T03:41:06.231Z,73.30
2018-03-26T03:43:34.121Z,73.40
2018-03-26T03:46:01.576Z,74.20
2018-03-26T03:48:29.029Z,73.60
2018-03-26T03:50:56.519Z,73.70
2018-03-26T03:53:23.949Z,73.80
2018-03-26T03:55:51.437Z,74.00
2018-03-26T03:58:18.868Z,74.10
2018-03-26T04:00:46.633Z,74.20
2018-03-26T04:03:14.082Z,74.30
2018-03-26T04:05:41.525Z,74.60
2018-03-26T04:08:09.006Z,74.60
2018-03-26T04:10:36.460Z,74.80
2018-03-26T04:13:03.904Z,74.90
2018-03-26T04:15:31.441Z,75.00
2018-03-26T04:17:58.912Z,75.00
2018-03-26T04:20:26.352Z,75.20
2018-03-26T04:22:53.919Z,75.30
2018-03-26T04:25:26.353Z,75.40
2018-03-26T04:27:53.893Z,75.50
2018-03-26T04:30:21.345Z,75.70
2018-03-26T04:32:48.800Z,75.70
2018-03-26T04:35:16.270Z,75.80
2018-03-26T04:37:45.704Z,75.90
2018-03-26T04:40:14.044Z,76.20
2018-03-26T04:42:41.579Z,76.10
2018-03-26T04:45:09.013Z,76.30
2018-03-26T04:47:36.500Z,76.40
2018-03-26T04:50:03.939Z,76.40
2018-03-26T04:52:46.157Z,76.50
2018-03-26T04:55:13.625Z,76.70
2018-03-26T04:57:41.240Z,76.80
2018-03-26T05:00:09.454Z,77.40
2018-03-26T05:02:36.991Z,77.40
2018-03-26T05:05:04.433Z,77.60
2018-03-26T05:07:32.648Z,78.00
2018-03-26T05:10:02.005Z,77.90
2018-03-26T05:12:30.217Z,78.30
2018-03-26T05:14:57.716Z,78.20
2018-03-26T05:17:25.156Z,78.40
2018-03-26T05:19:56.415Z,78.50
2018-03-26T05:22:23.856Z,78.60
2018-03-26T05:24:51.340Z,78.70
2018-03-26T05:27:34.657Z,78.90
2018-03-26T05:30:02.118Z,79.00
2018-03-26T05:32:29.569Z,79.10
2018-03-26T05:35:00.843Z,79.30
2018-03-26T05:37:28.277Z,79.50
2018-03-26T05:39:55.730Z,79.70
2018-03-26T05:42:23.217Z,80.60
2018-03-26T05:44:51.432Z,80.70
2018-03-26T05:47:18.878Z,80.00
2018-03-26T05:49:46.505Z,80.10
2018-03-26T05:52:13.999Z,80.10
2018-03-26T05:54:41.405Z,80.20
2018-03-26T05:57:08.882Z,80.20
2018-03-26T05:59:37.114Z,80.30
2018-03-26T06:02:04.608Z,80.20
2018-03-26T06:04:32.229Z,80.30
2018-03-26T06:06:59.676Z,80.50
2018-03-26T06:09:27.130Z,80.40
2018-03-26T06:11:54.789Z,80.40
2018-03-26T06:14:22.248Z,80.40
2018-03-26T06:17:01.654Z,80.40
2018-03-26T06:19:29.869Z,80.50
2018-03-26T06:21:57.441Z,80.40
2018-03-26T06:24:24.884Z,80.50
2018-03-26T06:26:52.341Z,80.70
2018-03-26T06:29:20.148Z,80.80
2018-03-26T06:31:47.596Z,80.90
2018-03-26T06:34:15.041Z,81.00
2018-03-26T06:36:44.074Z,81.00
2018-03-26T06:39:15.873Z,81.80
2018-03-26T06:41:43.766Z,81.00
2018-03-26T06:44:11.260Z,81.00
2018-03-26T06:46:38.667Z,81.20
2018-03-26T06:49:06.144Z,81.20
2018-03-26T06:51:33.629Z,81.20
2018-03-26T06:54:01.092Z,81.30
2018-03-26T06:56:29.349Z,81.40
2018-03-26T06:58:56.884Z,81.30
2018-03-26T07:01:24.325Z,81.30
2018-03-26T07:03:51.865Z,81.30
2018-03-26T07:06:19.361Z,81.20
2018-03-26T07:08:46.837Z,81.30
2018-03-26T07:11:14.284Z,81.40
2018-03-26T07:13:41.760Z,81.40
2018-03-26T07:16:09.398Z,81.50
2018-03-26T07:18:36.881Z,81.50
2018-03-26T07:21:04.333Z,81.50
2018-03-26T07:23:31.972Z,82.30
2018-03-26T07:25:59.448Z,81.40
2018-03-26T07:28:26.893Z,81.40
2018-03-26T07:30:55.196Z,81.30
2018-03-26T07:33:22.648Z,81.40
2018-03-26T07:35:50.144Z,81.30
2018-03-26T07:38:17.593Z,81.20
2018-03-26T07:40:45.065Z,81.10
2018-03-26T07:43:12.514Z,80.90
2018-03-26T07:45:40.154Z,80.60
2018-03-26T07:48:08.372Z,80.50
2018-03-26T07:50:35.817Z,80.50
2018-03-26T08:01:55.422Z,80.30
2018-03-26T08:04:23.752Z,80.30
2018-03-26T08:06:51.218Z,80.30
2018-03-26T08:09:18.676Z,80.30
2018-03-26T08:11:46.117Z,80.20
2018-03-26T08:14:13.572Z,80.20
2018-03-26T08:16:41.086Z,80.10
2018-03-26T08:19:08.587Z,80.10
2018-03-26T08:21:36.029Z,80.20
2018-03-26T08:24:16.513Z,80.20
2018-03-26T08:26:43.974Z,80.20
2018-03-26T08:29:11.453Z,80.10
2018-03-26T08:31:39.127Z,80.00
2018-03-26T08:34:06.561Z,79.80
2018-03-26T08:36:34.973Z,79.40
2018-03-26T08:39:02.422Z,79.40
2018-03-26T08:41:29.975Z,79.20
2018-03-26T08:43:57.444Z,79.20
2018-03-26T08:46:25.033Z,79.00
2018-03-26T08:48:53.243Z,79.10
2018-03-26T08:51:20.686Z,78.90
2018-03-26T08:53:48.253Z,78.80
2018-03-26T08:56:15.754Z,78.70
2018-03-26T08:58:43.149Z,78.40
2018-03-26T09:01:27.388Z,78.20
2018-03-26T09:03:55.592Z,77.40
2018-03-26T09:06:23.045Z,77.40
2018-03-26T09:08:50.840Z,77.00
2018-03-26T09:11:18.302Z,76.40
2018-03-26T09:13:45.738Z,75.80
2018-03-26T09:16:13.218Z,75.00
2018-03-26T09:18:40.648Z,74.90
2018-03-26T09:21:08.142Z,74.30
2018-03-26T09:23:35.579Z,74.30
2018-03-26T09:26:03.065Z,73.80
2018-03-26T09:28:30.804Z,73.40
2018-03-26T09:30:58.249Z,72.70
2018-03-26T09:33:26.079Z,72.30
2018-03-26T09:35:54.315Z,71.80
2018-03-26T09:38:21.964Z,71.80
2018-03-26T09:40:49.408Z,71.50
2018-03-26T09:43:16.887Z,70.90
2018-03-26T09:45:45.301Z,70.60
2018-03-26T09:48:13.504Z,69.90
2018-03-26T09:50:41.404Z,69.90
2018-03-26T09:53:08.854Z,69.50
2018-03-26T09:55:36.410Z,68.70
2018-03-26T09:58:03.901Z,67.70
2018-03-26T10:00:37.073Z,67.10
2018-03-26T10:03:04.536Z,66.40
2018-03-26T10:05:31.980Z,66.10
2018-03-26T10:07:59.585Z,65.90
2018-03-26T10:10:30.597Z,66.00
2018-03-26T10:12:58.036Z,66.20
2018-03-26T10:15:25.496Z,66.20
2018-03-26T10:17:52.990Z,66.00
2018-03-26T10:20:20.447Z,66.10
2018-03-26T10:22:47.888Z,66.60
2018-03-26T10:25:15.402Z,66.60
2018-03-26T10:27:43.592Z,64.70
2018-03-26T10:30:11.069Z,64.70
2018-03-26T10:32:38.502Z,63.70
2018-03-26T10:35:05.940Z,63.00
2018-03-26T10:37:33.483Z,62.20
2018-03-26T10:40:01.693Z,62.80
2018-03-26T10:42:30.020Z,62.10
2018-03-26T10:44:57.610Z,62.10
2018-03-26T10:47:25.043Z,62.30
2018-03-26T10:49:52.510Z,62.20
2018-03-26T10:52:20.716Z,61.20
2018-03-26T10:54:48.219Z,61.20
2018-03-26T10:57:15.669Z,59.70
2018-03-26T10:59:43.146Z,59.30
2018-03-26T11:02:10.592Z,58.90
2018-03-26T11:04:38.060Z,58.70
2018-03-26T11:07:05.509Z,58.50
2018-03-26T11:09:33.062Z,58.20
2018-03-26T11:12:00.506Z,57.60
2018-03-26T11:14:27.980Z,58.00
2018-03-26T11:16:55.437Z,58.20
2018-03-26T11:19:22.887Z,57.90
2018-03-26T11:21:50.352Z,57.60
2018-03-26T11:24:17.798Z,57.20
2018-03-26T11:26:45.333Z,57.00
2018-03-26T11:29:12.978Z,56.80
2018-03-26T11:31:40.443Z,56.90
2018-03-26T11:34:07.905Z,56.40
2018-03-26T11:36:35.382Z,55.80
2018-03-26T11:39:03.598Z,55.30
2018-03-26T11:41:31.155Z,55.30
2018-03-26T11:43:58.607Z,55.50
2018-03-26T11:46:26.473Z,55.60
2018-03-26T11:48:53.912Z,55.30
2018-03-26T11:51:21.505Z,55.30
2018-03-26T11:53:50.899Z,55.30
2018-03-26T11:56:19.292Z,55.30
2018-03-26T11:58:47.940Z,54.80
2018-03-26T12:01:15.426Z,54.70
2018-03-26T12:03:42.992Z,54.30
2018-03-26T12:06:10.576Z,53.50
2018-03-26T12:08:38.028Z,52.60
2018-03-26T12:11:06.234Z,51.80
2018-03-26T12:13:34.108Z,51.80
2018-03-26T12:16:01.552Z,52.00
2018-03-26T12:18:28.984Z,51.90
2018-03-26T12:20:57.239Z,51.80
2018-03-26T12:23:36.580Z,51.90
2018-03-26T12:26:05.041Z,52.60
2018-03-26T12:28:44.388Z,51.90
2018-03-26T12:31:11.844Z,52.70
2018-03-26T12:33:51.247Z,52.20
2018-03-26T12:36:18.747Z,51.70
2018-03-26T12:39:03.719Z,51.50
2018-03-26T12:41:31.259Z,51.40
2018-03-26T12:43:58.706Z,51.70
2018-03-26T12:46:38.626Z,51.20
2018-03-26T12:49:06.919Z,50.70
2018-03-26T12:51:57.944Z,50.50
2018-03-26T12:54:25.447Z,50.40
2018-03-26T12:57:05.716Z,50.90
2018-03-26T12:59:33.197Z,50.90
2018-03-26T13:02:12.665Z,50.20
2018-03-26T13:04:40.189Z,50.10
2018-03-26T13:07:07.678Z,50.20
2018-03-26T13:09:35.194Z,49.80
2018-03-26T13:12:03.029Z,49.70
2018-03-26T13:14:31.305Z,50.10
2018-03-26T13:16:58.780Z,49.90
2018-03-26T13:19:44.717Z,49.50
2018-03-26T13:22:12.158Z,48.90
2018-03-26T13:24:39.642Z,49.00
2018-03-26T13:27:07.615Z,49.40
2018-03-26T13:29:35.304Z,49.10
2018-03-26T13:32:03.528Z,48.70
2018-03-26T13:34:31.121Z,48.70
2018-03-26T13:36:58.612Z,47.70
2018-03-26T13:39:26.387Z,47.90
2018-03-26T13:41:53.918Z,48.00
2018-03-26T13:44:21.641Z,48.40
2018-03-26T13:47:03.957Z,48.10
2018-03-26T13:49:31.636Z,48.90
2018-03-26T13:51:59.080Z,48.30
2018-03-26T13:57:18.342Z,47.10
2018-03-26T13:59:45.929Z,47.10
2018-03-26T14:02:13.365Z,46.80
2018-03-26T14:04:40.829Z,47.10
2018-03-26T14:07:08.332Z,47.30
2018-03-26T14:09:48.861Z,47.00
2018-03-26T14:12:28.181Z,46.90
2018-03-26T14:15:08.389Z,46.80
2018-03-26T14:17:49.215Z,46.80
2018-03-26T14:20:16.885Z,46.40
2018-03-26T14:22:45.326Z,46.60
2018-03-26T14:25:12.891Z,46.80
2018-03-26T14:27:40.610Z,47.00
2018-03-26T14:30:10.706Z,46.10
2018-03-26T14:32:38.170Z,46.00
2018-03-26T14:35:30.686Z,46.30
2018-03-26T14:37:59.294Z,45.60
2018-03-26T14:40:29.121Z,45.50
2018-03-26T14:42:57.001Z,45.70
2018-03-26T14:45:25.440Z,45.70
2018-03-26T14:51:01.820Z,46.00
2018-03-26T14:53:31.270Z,45.60
2018-03-26T14:56:22.241Z,44.60
2018-03-26T15:01:40.701Z,44.00
2018-03-26T15:04:09.945Z,44.90
2018-03-26T15:26:19.077Z,43.40
2018-03-26T15:28:46.929Z,43.40
2018-03-26T15:31:14.405Z,42.20
2018-03-26T15:33:41.886Z,42.80
2018-03-26T15:36:09.534Z,43.10
2018-03-26T15:38:37.047Z,43.20
2018-03-26T15:41:04.554Z,43.40
2018-03-26T15:43:32.037Z,43.40
2018-03-26T15:45:59.537Z,43.90
2018-03-26T15:48:27.326Z,43.90
2018-03-26T15:50:54.780Z,44.60
2018-03-26T15:53:22.338Z,44.80
2018-03-26T15:55:49.837Z,45.20
2018-03-26T15:58:26.244Z,45.10
2018-03-26T16:00:53.710Z,45.10
2018-03-26T16:03:26.052Z,45.30
2018-03-26T16:05:54.286Z,45.60
2018-03-26T16:11:33.393Z,45.80
2018-03-26T16:14:00.870Z,46.10
2018-03-26T16:16:28.328Z,46.50
2018-03-26T16:18:55.960Z,46.60
2018-03-26T16:21:34.229Z,46.50
2018-03-26T16:24:01.696Z,46.40
2018-03-26T16:26:29.225Z,46.60
2018-03-26T16:28:56.892Z,46.60
2018-03-26T16:31:24.574Z,46.50
2018-03-26T16:33:52.111Z,46.00
2018-03-26T16:36:19.759Z,46.20
2018-03-26T16:38:47.201Z,46.50
2018-03-26T16:41:26.434Z,46.60
2018-03-26T16:43:54.905Z,46.80
2018-03-26T16:46:23.877Z,46.90
2018-03-26T16:48:51.304Z,46.90
2018-03-26T16:51:18.742Z,46.90
2018-03-26T16:53:48.339Z,46.90
2018-03-26T16:56:15.788Z,46.80
2018-03-26T16:58:43.228Z,46.60
2018-03-26T17:01:11.570Z,46.80
2018-03-26T17:03:39.020Z,46.80
2018-03-26T17:06:06.521Z,46.80
2018-03-26T17:08:34.714Z,46.90
2018-03-26T17:11:02.444Z,47.70
2018-03-26T17:13:30.593Z,47.90
2018-03-26T17:16:09.036Z,47.90
2018-03-26T17:18:36.473Z,49.00
2018-03-26T17:21:06.392Z,48.80
2018-03-26T17:23:33.833Z,48.90
2018-03-26T17:26:01.269Z,49.10
2018-03-26T17:28:28.785Z,49.40
2018-03-26T17:30:56.557Z,49.20
2018-03-26T17:33:24.777Z,49.70
2018-03-26T17:35:52.294Z,49.70
2018-03-26T17:38:20.549Z,50.10
2018-03-26T17:40:47.980Z,49.90
2018-03-26T17:43:15.438Z,50.40
2018-03-26T17:45:42.885Z,50.60
2018-03-26T17:48:10.341Z,50.90
2018-03-26T17:50:37.810Z,51.10
2018-03-26T17:53:05.316Z,51.20
2018-03-26T17:55:33.547Z,51.30
2018-03-26T17:58:01.025Z,51.20
2018-03-26T18:00:28.484Z,51.50
2018-03-26T18:02:55.938Z,51.70
2018-03-26T18:05:27.333Z,51.80
2018-03-26T18:07:55.024Z,52.00
2018-03-26T18:10:22.528Z,52.20
2018-03-26T18:12:49.892Z,52.50
2018-03-26T18:15:18.137Z,52.80
2018-03-26T18:18:00.421Z,52.70
2018-03-26T18:20:27.877Z,53.00
2018-03-26T18:22:56.580Z,53.40
2018-03-26T18:25:24.018Z,53.40
2018-03-26T18:27:51.450Z,53.70
2018-03-26T18:30:18.912Z,53.90
2018-03-26T18:32:46.685Z,54.20
2018-03-26T18:35:14.288Z,54.30
2018-03-26T18:37:41.748Z,54.50
2018-03-26T18:40:09.273Z,54.60
2018-03-26T18:42:36.728Z,54.80
2018-03-26T18:45:04.238Z,55.00
2018-03-26T18:47:31.680Z,55.10
2018-03-26T18:49:59.125Z,55.20
2018-03-26T18:52:26.621Z,55.30
2018-03-26T18:54:55.805Z,55.80
2018-03-26T18:57:23.271Z,55.60
2018-03-26T18:59:51.541Z,56.10
2018-03-26T19:02:35.893Z,56.10
2018-03-26T19:05:03.347Z,56.40
2018-03-26T19:07:30.786Z,56.50
2018-03-26T19:09:58.243Z,56.60
2018-03-26T19:12:26.236Z,56.90
2018-03-26T19:26:26.585Z,58.00
2018-03-26T19:28:54.028Z,58.00
2018-03-26T19:31:22.424Z,58.00
2018-03-26T19:33:49.897Z,58.30
2018-03-26T19:36:18.156Z,58.70
2018-03-26T19:38:45.594Z,58.60
2018-03-26T19:41:13.031Z,58.80
2018-03-26T19:43:40.562Z,58.90
2018-03-26T19:46:08.137Z,59.10
2018-03-26T19:48:35.581Z,59.30
2018-03-26T19:51:03.047Z,61.40
2018-03-26T19:53:47.508Z,61.70
2018-03-26T19:56:16.234Z,60.70
2018-03-26T19:58:43.686Z,60.70
2018-03-26T20:01:11.182Z,60.60
2018-03-26T20:03:39.393Z,60.70
2018-03-26T20:06:06.872Z,60.60
2018-03-26T20:08:34.309Z,60.60
2018-03-26T20:11:01.770Z,60.70
2018-03-26T20:13:31.816Z,60.80
2018-03-26T20:15:59.318Z,61.10
2018-03-26T20:18:41.277Z,61.60
2018-03-26T20:21:08.731Z,61.60
2018-03-26T20:23:39.169Z,61.50
2018-03-26T20:26:06.653Z,61.50
2018-03-26T20:28:35.185Z,61.60
2018-03-26T20:31:02.633Z,61.50
2018-03-26T20:33:31.492Z,61.70
2018-03-26T20:35:58.933Z,62.00
2018-03-26T20:38:27.175Z,62.60
2018-03-26T20:40:55.834Z,62.60
2018-03-26T20:43:23.269Z,63.00
2018-03-26T20:45:55.607Z,63.30
2018-03-26T20:48:23.139Z,63.50
2018-03-26T20:50:50.585Z,63.70
2018-03-26T20:53:18.045Z,64.00
2018-03-26T20:55:45.560Z,64.20
2018-03-26T20:58:13.071Z,64.40
2018-03-26T21:00:40.509Z,64.40
2018-03-26T21:05:58.529Z,64.10
2018-03-26T21:08:26.761Z,64.10
2018-03-26T21:10:54.201Z,64.10
2018-03-26T21:13:21.760Z,64.30
2018-03-26T21:15:49.204Z,64.70
2018-03-26T21:18:16.650Z,65.00
2018-03-26T21:20:45.494Z,65.40
2018-03-26T21:23:12.936Z,65.70
2018-03-26T21:25:40.412Z,65.90
2018-03-26T21:28:07.845Z,66.20
2018-03-26T21:30:36.122Z,66.50
2018-03-26T21:33:05.054Z,66.80
2018-03-26T21:35:32.492Z,67.00
2018-03-26T21:37:59.936Z,67.30
2018-03-26T21:40:27.405Z,67.60
2018-03-26T21:42:54.842Z,67.70
2018-03-26T21:45:22.306Z,67.80
2018-03-26T21:47:49.746Z,67.80
2018-03-26T21:50:17.288Z,68.10
2018-03-26T21:52:44.726Z,68.20
2018-03-26T21:55:12.290Z,68.40
2018-03-26T21:57:40.497Z,68.70
2018-03-26T22:00:08.737Z,68.70
2018-03-26T22:02:41.897Z,68.90
2018-03-26T22:05:09.367Z,68.90
2018-03-26T22:07:36.801Z,69.00
2018-03-26T22:10:04.288Z,69.20
2018-03-26T22:12:31.733Z,69.40
2018-03-26T22:14:59.181Z,69.60
2018-03-26T22:17:26.837Z,69.80
2018-03-26T22:19:54.277Z,69.90
2018-03-26T22:22:21.718Z,70.00
2018-03-26T22:24:49.937Z,70.20
2018-03-26T22:27:17.393Z,70.10
2018-03-26T22:29:44.841Z,70.20
2018-03-26T22:32:12.386Z,70.30
2018-03-26T22:34:39.826Z,70.40
2018-03-26T22:37:07.313Z,70.50
2018-03-26T22:39:34.762Z,70.70
2018-03-26T22:42:02.229Z,70.80
2018-03-26T22:44:29.682Z,70.90
2018-03-26T22:46:57.234Z,71.00
2018-03-26T22:49:24.678Z,71.10
2018-03-26T22:51:52.161Z,71.30
2018-03-26T22:54:19.604Z,71.50
2018-03-26T22:56:50.781Z,71.70
2018-03-26T22:59:18.224Z,71.90
2018-03-26T23:01:45.720Z,72.10
2018-03-26T23:04:13.930Z,72.50
2018-03-26T23:06:41.413Z,73.10
2018-03-26T23:09:08.848Z,72.50
2018-03-26T23:11:36.303Z,72.70
2018-03-26T23:14:03.768Z,72.80
2018-03-26T23:16:31.216Z,73.10
2018-03-26T23:18:58.669Z,73.20
2018-03-26T23:21:26.200Z,73.30
2018-03-26T23:23:54.433Z,73.50
2018-03-26T23:26:21.878Z,73.50
2018-03-26T23:28:56.458Z,73.60
2018-03-26T23:31:24.659Z,73.70
2018-03-26T23:33:52.167Z,73.70
2018-03-26T23:36:19.633Z,73.80
2018-03-26T23:38:47.088Z,73.80
2018-03-26T23:41:14.538Z,74.00
2018-03-26T23:43:41.996Z,74.10
2018-03-26T23:46:09.441Z,74.20
2018-03-26T23:48:37.256Z,74.10
2018-03-26T23:51:05.471Z,74.30
2018-03-26T23:53:50.941Z,74.20
2018-03-26T23:56:18.386Z,74.30
2018-03-26T23:58:45.881Z,74.20
